Time;durP1;ratioP1;P1;durP2;ratioP2;P2;SDS_P1;SDS_P2;PMS_P1;PMS_P2;Temp;Humidity;BMP_temperature;BMP_pressure;BME280_temperature;BME280_humidity;BME280_pressure;Samples;Min_cycle;Max_cycle;Signal;HPM_P1;HPM_P2
2022/07/10 00:00:32;;;;;;;6.05;1.42;;;18.90;58.40;;;;;;5017131;28;20029;-62
2022/07/10 00:02:58;;;;;;;4.43;1.48;;;18.80;58.40;;;;;;5018588;28;20490;-62
2022/07/10 00:05:24;;;;;;;2.38;0.90;;;18.80;58.60;;;;;;5014074;28;20030;-62
2022/07/10 00:07:50;;;;;;;7.47;1.20;;;18.80;58.80;;;;;;5014471;28;20056;-62
2022/07/10 00:10:17;;;;;;;5.45;1.60;;;18.80;58.90;;;;;;5013399;28;20054;-62
2022/07/10 00:12:43;;;;;;;5.00;1.48;;;18.70;58.90;;;;;;5005949;28;20034;-62
2022/07/10 00:15:09;;;;;;;3.30;1.10;;;18.80;59.20;;;;;;5015247;28;20432;-62
2022/07/10 00:17:36;;;;;;;5.75;1.70;;;18.70;59.30;;;;;;5028594;28;20447;-62
2022/07/10 00:20:02;;;;;;;4.00;1.27;;;18.70;59.50;;;;;;5027081;28;20132;-62
2022/07/10 00:22:28;;;;;;;3.67;1.25;;;18.70;59.50;;;;;;5025733;28;20033;-62
2022/07/10 00:24:54;;;;;;;5.03;1.40;;;18.70;59.50;;;;;;5013788;28;20022;-63
2022/07/10 00:27:20;;;;;;;4.82;1.33;;;18.70;59.60;;;;;;5029275;28;20127;-62
2022/07/10 00:29:46;;;;;;;5.32;1.33;;;18.70;59.70;;;;;;5013972;28;20068;-62
2022/07/10 00:32:11;;;;;;;5.15;1.00;;;18.70;59.80;;;;;;5022700;28;20108;-62
2022/07/10 00:34:38;;;;;;;8.60;1.80;;;18.70;59.90;;;;;;5002807;28;20025;-62
2022/07/10 00:37:04;;;;;;;3.00;0.90;;;18.70;60.00;;;;;;5034950;28;20056;-62
2022/07/10 00:39:30;;;;;;;6.90;1.67;;;18.70;60.10;;;;;;5018937;28;20037;-62
2022/07/10 00:42:07;;;;;;;5.55;1.70;;;18.70;60.20;;;;;;5023553;28;20363;-62
2022/07/10 00:44:33;;;;;;;5.97;1.40;;;18.70;60.30;;;;;;5015203;28;20037;-62
2022/07/10 00:46:59;;;;;;;4.75;1.35;;;18.60;60.20;;;;;;5033166;28;20102;-62
2022/07/10 00:49:25;;;;;;;7.75;2.03;;;18.60;60.20;;;;;;5019406;28;20160;-62
2022/07/10 00:51:51;;;;;;;4.75;1.48;;;18.60;60.30;;;;;;5019211;28;20416;-62
2022/07/10 00:54:17;;;;;;;3.35;1.30;;;18.60;60.30;;;;;;5012906;28;20406;-62
2022/07/10 00:56:43;;;;;;;3.80;1.33;;;18.60;60.30;;;;;;5014372;28;20029;-62
2022/07/10 00:59:09;;;;;;;5.60;1.58;;;18.60;60.30;;;;;;5013873;28;20034;-62
2022/07/10 01:01:36;;;;;;;4.63;1.40;;;18.60;60.20;;;;;;5015275;28;20034;-62
2022/07/10 01:04:01;;;;;;;6.63;1.50;;;18.60;60.20;;;;;;5011381;28;20038;-62
2022/07/10 01:06:27;;;;;;;4.53;1.35;;;18.70;60.20;;;;;;5013452;28;20033;-62
2022/07/10 01:08:53;;;;;;;7.32;1.40;;;18.70;60.20;;;;;;4995844;28;20056;-63
2022/07/10 01:11:19;;;;;;;4.25;1.25;;;18.60;60.10;;;;;;5028411;28;20058;-62
2022/07/10 01:13:45;;;;;;;4.57;1.30;;;18.60;60.10;;;;;;5019664;28;20034;-62
2022/07/10 01:16:11;;;;;;;4.63;1.48;;;18.60;60.10;;;;;;5011659;28;20026;-62
2022/07/10 01:18:37;;;;;;;5.05;1.67;;;18.60;60.80;;;;;;5014293;28;20109;-62
2022/07/10 01:21:03;;;;;;;5.50;1.48;;;18.60;60.10;;;;;;5013538;28;20113;-62
2022/07/10 01:23:29;;;;;;;7.72;1.35;;;18.60;60.20;;;;;;5013032;28;20018;-62
2022/07/10 01:25:54;;;;;;;4.70;1.20;;;18.60;60.30;;;;;;5012719;28;20399;-62
2022/07/10 01:28:21;;;;;;;5.15;1.60;;;18.60;60.50;;;;;;5014375;28;20041;-62
2022/07/10 01:30:47;;;;;;;5.20;1.63;;;18.60;60.50;;;;;;5013418;28;20057;-62
2022/07/10 01:33:13;;;;;;;3.75;1.33;;;18.60;60.50;;;;;;5012994;28;20088;-62
2022/07/10 01:35:39;;;;;;;5.00;1.45;;;18.60;60.50;;;;;;5013609;28;20026;-62
2022/07/10 01:38:06;;;;;;;6.00;1.42;;;18.50;60.60;;;;;;5014393;28;20032;-62
2022/07/10 01:40:32;;;;;;;3.85;1.25;;;18.50;60.70;;;;;;5012699;28;20045;-62
2022/07/10 01:42:58;;;;;;;5.85;1.60;;;18.40;60.60;;;;;;5013738;28;20060;-63
2022/07/10 01:45:24;;;;;;;3.58;1.33;;;18.40;60.70;;;;;;5012442;28;20022;-63
2022/07/10 01:47:50;;;;;;;4.82;1.33;;;18.40;60.80;;;;;;5014391;28;20022;-62
2022/07/10 01:50:16;;;;;;;3.40;1.13;;;18.40;60.90;;;;;;5011612;28;20036;-63
2022/07/10 01:52:42;;;;;;;4.40;1.20;;;18.30;61.00;;;;;;5014175;28;20112;-62
2022/07/10 01:55:08;;;;;;;3.72;1.20;;;18.30;61.00;;;;;;5009936;28;20441;-62
2022/07/10 01:57:34;;;;;;;5.68;1.42;;;18.30;61.10;;;;;;5013403;28;20045;-62
2022/07/10 01:59:59;;;;;;;4.85;1.40;;;18.30;61.10;;;;;;5011575;28;20037;-62
2022/07/10 02:02:25;;;;;;;4.15;1.20;;;18.30;61.10;;;;;;5018108;28;20340;-63
2022/07/10 02:04:50;;;;;;;5.85;1.30;;;18.30;61.10;;;;;;5012360;28;20510;-62
2022/07/10 02:07:18;;;;;;;4.35;1.60;;;18.30;61.00;;;;;;5016356;28;20354;-62
2022/07/10 02:09:45;;;;;;;4.53;1.20;;;18.30;61.00;;;;;;5016038;28;20367;-63
2022/07/10 02:12:12;;;;;;;5.07;2.00;;;18.30;61.00;;;;;;5013030;28;20348;-63
2022/07/10 02:14:39;;;;;;;4.05;1.50;;;18.30;61.70;;;;;;5011626;28;20040;-63
2022/07/10 02:17:05;;;;;;;4.55;1.38;;;18.30;61.00;;;;;;5010373;28;20049;-63
2022/07/10 02:19:31;;;;;;;5.68;1.30;;;18.30;61.00;;;;;;5014663;28;20046;-63
2022/07/10 02:21:57;;;;;;;6.45;1.48;;;18.30;61.00;;;;;;5016272;28;20400;-63
2022/07/10 02:24:22;;;;;;;5.35;1.45;;;18.30;61.00;;;;;;4998781;28;20167;-63
2022/07/10 02:26:48;;;;;;;6.30;2.22;;;18.30;61.10;;;;;;5015730;28;20344;-63
2022/07/10 02:29:14;;;;;;;5.93;1.63;;;18.30;61.10;;;;;;5017535;28;20129;-63
2022/07/10 02:31:40;;;;;;;3.85;1.25;;;18.30;61.00;;;;;;5015617;28;20473;-63
2022/07/10 02:34:12;;;;;;;4.53;1.40;;;18.30;61.00;;;;;;5014977;28;20109;-63
2022/07/10 02:36:39;;;;;;;5.03;1.33;;;18.30;61.00;;;;;;5016696;28;20332;-62
2022/07/10 02:39:06;;;;;;;6.97;1.55;;;18.20;61.00;;;;;;5015616;28;20369;-63
2022/07/10 02:41:32;;;;;;;5.03;1.40;;;18.30;61.10;;;;;;5015264;28;20029;-63
2022/07/10 02:43:58;;;;;;;6.03;1.38;;;18.20;61.20;;;;;;5015928;28;20029;-63
2022/07/10 02:46:24;;;;;;;4.20;1.52;;;18.20;61.30;;;;;;5015020;28;20030;-63
2022/07/10 02:48:50;;;;;;;5.38;1.50;;;18.20;61.40;;;;;;5016646;28;20030;-63
2022/07/10 02:51:16;;;;;;;4.10;1.25;;;18.20;61.50;;;;;;5013669;28;20407;-63
2022/07/10 02:53:41;;;;;;;5.90;1.75;;;18.20;61.70;;;;;;5015123;28;20113;-63
2022/07/10 02:56:07;;;;;;;5.45;1.30;;;18.20;61.90;;;;;;5015546;28;20032;-63
2022/07/10 02:58:33;;;;;;;4.68;1.67;;;18.20;62.00;;;;;;5015758;28;20042;-63
2022/07/10 03:00:59;;;;;;;6.00;1.70;;;18.20;62.70;;;;;;5011295;28;20058;-63
2022/07/10 03:03:25;;;;;;;4.72;1.35;;;18.10;62.00;;;;;;5015486;28;20060;-63
2022/07/10 03:05:51;;;;;;;3.90;1.30;;;18.10;62.10;;;;;;5014960;28;20371;-63
2022/07/10 03:08:16;;;;;;;5.53;1.60;;;18.10;62.20;;;;;;5016372;28;20022;-64
2022/07/10 03:10:42;;;;;;;6.30;1.80;;;18.10;62.40;;;;;;5015652;28;20041;-63
2022/07/10 03:13:09;;;;;;;3.03;1.42;;;18.10;62.40;;;;;;5012763;28;20165;-65
2022/07/10 03:15:35;;;;;;;4.40;1.50;;;18.10;62.50;;;;;;5015559;28;20044;-64
2022/07/10 03:18:01;;;;;;;6.30;1.50;;;18.10;62.60;;;;;;5015121;28;20034;-63
2022/07/10 03:20:27;;;;;;;9.05;2.30;;;18.10;62.60;;;;;;5014495;28;20336;-61
2022/07/10 03:22:52;;;;;;;5.25;1.67;;;18.10;62.70;;;;;;5014400;28;20447;-61
2022/07/10 03:25:18;;;;;;;6.45;1.60;;;18.10;62.80;;;;;;5015375;28;20018;-62
2022/07/10 03:27:43;;;;;;;5.88;1.60;;;18.10;62.90;;;;;;5015454;28;20507;-62
2022/07/10 03:30:10;;;;;;;5.10;1.33;;;18.10;62.90;;;;;;5016071;28;20036;-62
2022/07/10 03:32:36;;;;;;;6.95;1.60;;;18.10;62.90;;;;;;5010870;28;20037;-62
2022/07/10 03:35:01;;;;;;;5.82;1.63;;;18.10;63.00;;;;;;5022527;28;20025;-62
2022/07/10 03:37:27;;;;;;;5.28;1.73;;;18.10;63.00;;;;;;5016642;28;20034;-61
2022/07/10 03:39:53;;;;;;;5.65;1.40;;;18.10;63.00;;;;;;5018555;28;20462;-61
2022/07/10 03:42:18;;;;;;;5.00;1.42;;;18.10;63.00;;;;;;5021095;28;20030;-62
2022/07/10 03:44:44;;;;;;;4.10;1.73;;;18.10;63.00;;;;;;5014894;28;20068;-62
2022/07/10 03:47:11;;;;;;;4.88;1.45;;;18.10;63.00;;;;;;5013568;28;20066;-62
2022/07/10 03:49:38;;;;;;;6.20;1.67;;;18.10;63.10;;;;;;5014745;28;20463;-61
2022/07/10 03:52:05;;;;;;;4.03;1.40;;;18.10;63.10;;;;;;5013860;28;20069;-61
2022/07/10 03:54:31;;;;;;;4.50;1.70;;;18.00;63.10;;;;;;5014824;28;20125;-61
2022/07/10 03:59:42;;;;;;;5.78;1.67;;;18.00;63.20;;;;;;5010690;28;20033;-61
2022/07/10 04:02:08;;;;;;;5.82;1.75;;;18.00;63.30;;;;;;5013482;28;20028;-65
2022/07/10 04:04:33;;;;;;;5.75;1.60;;;18.00;63.20;;;;;;4996421;28;20014;-66
2022/07/10 04:06:59;;;;;;;5.07;1.35;;;18.10;63.30;;;;;;4998377;28;20086;-66
2022/07/10 04:09:25;;;;;;;5.45;1.45;;;18.00;63.20;;;;;;5013888;28;20034;-66
2022/07/10 04:11:50;;;;;;;5.85;1.55;;;18.10;63.30;;;;;;5013792;28;20038;-66
2022/07/10 04:14:17;;;;;;;4.75;1.58;;;18.10;63.30;;;;;;5013510;28;20037;-65
2022/07/10 04:16:43;;;;;;;4.97;1.83;;;18.10;63.30;;;;;;5013667;28;20033;-66
2022/07/10 04:19:08;;;;;;;7.40;1.60;;;18.10;63.20;;;;;;5013219;28;20048;-66
2022/07/10 04:21:34;;;;;;;8.40;1.67;;;18.10;63.30;;;;;;5013039;28;20030;-66
2022/07/10 04:24:00;;;;;;;6.38;1.58;;;18.10;63.20;;;;;;5009298;28;20439;-66
2022/07/10 04:26:25;;;;;;;8.15;1.67;;;18.20;63.40;;;;;;5013456;28;20025;-66
2022/07/10 04:28:51;;;;;;;7.75;1.67;;;18.10;63.30;;;;;;5013787;28;20493;-66
2022/07/10 04:31:17;;;;;;;5.95;1.58;;;18.10;63.30;;;;;;5013027;28;20034;-66
2022/07/10 04:33:42;;;;;;;4.60;1.48;;;18.20;63.40;;;;;;5013520;28;20057;-66
2022/07/10 04:36:08;;;;;;;7.47;1.85;;;18.20;63.40;;;;;;5013701;28;20026;-66
2022/07/10 04:38:34;;;;;;;4.60;1.33;;;18.10;63.40;;;;;;5011775;28;20022;-66
2022/07/10 04:40:59;;;;;;;4.15;1.38;;;18.10;63.50;;;;;;5009968;28;20030;-66
2022/07/10 04:43:25;;;;;;;5.43;1.42;;;18.10;63.60;;;;;;5013508;28;20061;-66
2022/07/10 04:45:51;;;;;;;4.13;1.55;;;18.10;63.60;;;;;;5015599;28;20018;-66
2022/07/10 04:48:16;;;;;;;9.50;1.90;;;18.10;63.60;;;;;;5012034;28;20534;-66
2022/07/10 04:50:42;;;;;;;7.13;1.45;;;18.10;63.60;;;;;;5012442;28;20451;-66
2022/07/10 04:53:08;;;;;;;5.63;1.35;;;18.10;63.60;;;;;;5013376;28;20028;-66
2022/07/10 04:55:33;;;;;;;5.53;1.20;;;18.10;63.60;;;;;;5014473;28;20497;-66
2022/07/10 04:57:59;;;;;;;5.85;1.75;;;18.10;63.60;;;;;;5012955;28;20072;-67
2022/07/10 05:00:25;;;;;;;8.23;1.77;;;18.10;63.60;;;;;;5014408;28;20022;-65
2022/07/10 05:02:51;;;;;;;5.15;1.33;;;18.10;63.70;;;;;;5013285;28;20030;-66
2022/07/10 05:05:17;;;;;;;7.07;1.70;;;18.10;63.60;;;;;;5014338;28;20075;-65
2022/07/10 05:07:42;;;;;;;6.28;1.50;;;18.10;63.50;;;;;;5012157;28;20037;-66
2022/07/10 05:10:09;;;;;;;5.18;1.38;;;18.20;63.50;;;;;;5013511;28;20068;-65
2022/07/10 05:12:34;;;;;;;6.03;1.40;;;18.20;63.50;;;;;;5014198;28;20026;-64
2022/07/10 05:15:00;;;;;;;4.50;1.25;;;18.20;63.40;;;;;;5008416;28;20164;-65
2022/07/10 05:17:28;;;;;;;5.80;1.27;;;18.20;63.40;;;;;;5010539;28;20037;-64
2022/07/10 05:19:55;;;;;;;5.78;1.70;;;18.20;63.30;;;;;;5011406;28;20124;-64
2022/07/10 05:22:21;;;;;;;4.35;1.20;;;18.20;63.30;;;;;;5011771;28;20037;-65
2022/07/10 05:24:47;;;;;;;6.35;1.60;;;18.30;63.30;;;;;;5012787;28;20034;-65
2022/07/10 05:27:13;;;;;;;5.28;1.50;;;18.30;63.30;;;;;;5013466;28;20069;-65
2022/07/10 05:29:38;;;;;;;5.30;1.48;;;18.30;63.20;;;;;;5014515;28;20124;-66
2022/07/10 05:32:04;;;;;;;5.03;1.40;;;18.40;63.30;;;;;;5013973;28;20029;-65
2022/07/10 05:34:30;;;;;;;5.53;1.45;;;18.40;63.20;;;;;;5012742;28;20483;-65
2022/07/10 05:36:56;;;;;;;6.43;1.80;;;18.40;63.20;;;;;;5012925;28;20355;-65
2022/07/10 05:39:22;;;;;;;7.07;1.60;;;18.40;63.20;;;;;;5011601;28;20363;-65
2022/07/10 05:41:47;;;;;;;3.67;1.20;;;18.40;63.20;;;;;;5013706;28;20058;-65
2022/07/10 05:44:13;;;;;;;6.03;1.42;;;18.50;63.10;;;;;;5012653;28;20054;-65
2022/07/10 05:46:39;;;;;;;5.38;1.65;;;18.60;63.10;;;;;;5010538;28;20083;-65
2022/07/10 05:49:05;;;;;;;5.57;1.38;;;18.60;63.10;;;;;;5012076;28;20108;-65
2022/07/10 05:51:30;;;;;;;5.90;1.50;;;18.60;63.10;;;;;;5013951;28;20045;-65
2022/07/10 05:53:56;;;;;;;5.63;1.63;;;18.60;63.30;;;;;;5013991;28;20033;-65
2022/07/10 05:56:21;;;;;;;6.53;1.45;;;18.50;63.40;;;;;;5016714;28;20033;-65
2022/07/10 05:58:47;;;;;;;6.43;2.00;;;18.40;63.50;;;;;;5015358;28;20034;-65
2022/07/10 06:01:13;;;;;;;6.72;1.65;;;18.40;63.60;;;;;;5016979;28;20063;-66
2022/07/10 06:03:39;;;;;;;5.20;1.48;;;18.40;63.70;;;;;;5017066;28;20064;-66
2022/07/10 06:06:05;;;;;;;6.88;1.40;;;18.40;63.80;;;;;;5016127;28;20431;-66
2022/07/10 06:08:30;;;;;;;6.55;1.60;;;18.40;63.80;;;;;;5014944;28;20033;-65
2022/07/10 06:10:56;;;;;;;3.85;1.40;;;18.40;64.00;;;;;;5015172;28;20046;-66
2022/07/10 06:13:21;;;;;;;7.05;1.70;;;18.40;64.00;;;;;;5017122;28;20028;-65
2022/07/10 06:15:47;;;;;;;5.38;1.30;;;18.40;64.00;;;;;;5015449;28;20731;-65
2022/07/10 06:18:13;;;;;;;3.40;1.25;;;18.40;64.00;;;;;;5015597;28;20026;-65
2022/07/10 06:20:38;;;;;;;4.93;1.50;;;18.40;64.20;;;;;;5015425;28;20468;-66
2022/07/10 06:23:04;;;;;;;7.00;1.70;;;18.50;64.50;;;;;;5017248;28;20024;-65
2022/07/10 06:25:29;;;;;;;7.05;1.67;;;18.50;64.70;;;;;;5013365;28;20113;-66
2022/07/10 06:27:55;;;;;;;6.85;1.60;;;18.40;64.90;;;;;;5015460;28;20036;-65
2022/07/10 06:30:21;;;;;;;4.80;1.55;;;18.50;65.20;;;;;;5016026;28;20036;-66
2022/07/10 06:32:47;;;;;;;8.00;2.10;;;18.50;65.30;;;;;;5016631;28;20034;-66
2022/07/10 06:35:12;;;;;;;7.10;1.85;;;18.40;65.40;;;;;;5017158;28;20091;-66
2022/07/10 06:37:38;;;;;;;8.20;1.85;;;18.40;65.70;;;;;;5016858;28;20025;-66
2022/07/10 06:40:04;;;;;;;7.22;1.80;;;18.40;66.00;;;;;;5017437;28;20333;-66
2022/07/10 06:42:30;;;;;;;4.30;1.40;;;18.30;66.30;;;;;;5017350;28;20351;-66
2022/07/10 06:44:59;;;;;;;7.72;1.85;;;18.30;66.70;;;;;;5015716;28;20026;-66
2022/07/10 06:50:09;;;;;;;5.75;1.92;;;18.30;67.60;;;;;;5012768;28;20332;-66
2022/07/10 06:52:36;;;;;;;6.50;1.80;;;18.30;67.90;;;;;;5014751;28;20129;-66
2022/07/10 06:55:02;;;;;;;7.35;1.83;;;18.30;68.20;;;;;;5030766;28;20048;-66
2022/07/10 06:57:28;;;;;;;5.57;1.50;;;18.30;68.50;;;;;;5016100;28;20041;-66
2022/07/10 06:59:54;;;;;;;6.07;1.63;;;18.30;68.80;;;;;;5009950;28;20030;-66
2022/07/10 07:02:20;;;;;;;6.88;1.73;;;18.30;69.00;;;;;;5014825;28;20030;-67
2022/07/10 07:04:46;;;;;;;4.13;1.38;;;18.40;69.20;;;;;;5015034;28;20033;-66
2022/07/10 07:07:15;;;;;;;5.05;1.70;;;18.30;69.40;;;;;;5016138;28;20030;-66
2022/07/10 07:09:42;;;;;;;6.40;1.88;;;18.30;69.60;;;;;;5012206;28;20042;-66
2022/07/10 07:12:08;;;;;;;4.78;1.88;;;18.40;69.90;;;;;;5015453;28;20100;-66
2022/07/10 07:14:34;;;;;;;12.80;1.95;;;18.30;70.10;;;;;;5015445;28;20026;-66
2022/07/10 07:17:05;;;;;;;7.18;1.88;;;18.30;70.40;;;;;;5014649;28;20030;-66
2022/07/10 07:25:09;;;;;;;6.07;1.88;;;18.30;71.10;;;;;;5011831;28;20022;-66
2022/07/10 07:27:36;;;;;;;4.05;1.48;;;18.20;71.10;;;;;;5016438;28;20025;-66
2022/07/10 07:30:07;;;;;;;7.28;1.90;;;18.30;71.40;;;;;;5012155;28;20041;-66
2022/07/10 07:32:33;;;;;;;6.25;1.95;;;18.30;71.60;;;;;;5014836;28;20030;-67
2022/07/10 07:35:00;;;;;;;5.93;1.90;;;18.30;71.60;;;;;;5013758;28;20037;-66
2022/07/10 07:37:55;;;;;;;7.55;1.80;;;18.30;72.30;;;;;;5011494;28;20443;-66
2022/07/10 07:40:23;;;;;;;5.50;1.75;;;18.40;71.70;;;;;;5013067;28;20344;-66
2022/07/10 07:42:54;;;;;;;4.57;1.70;;;18.40;71.80;;;;;;5013631;28;20440;-66
2022/07/10 07:45:20;;;;;;;7.28;1.80;;;18.50;72.00;;;;;;5013072;28;20028;-66
2022/07/10 07:47:51;;;;;;;7.75;2.17;;;18.60;71.70;;;;;;5015151;28;20028;-67
2022/07/10 07:50:22;;;;;;;6.50;1.77;;;18.70;71.70;;;;;;5010109;28;20034;-67
2022/07/10 07:52:49;;;;;;;6.65;2.05;;;18.70;71.70;;;;;;5027431;28;20044;-67
2022/07/10 07:55:16;;;;;;;4.88;1.77;;;18.80;71.60;;;;;;5013284;28;20034;-67
2022/07/10 07:57:43;;;;;;;5.97;1.95;;;18.70;71.70;;;;;;5014919;28;20103;-67
2022/07/10 08:00:10;;;;;;;5.80;1.75;;;18.70;71.90;;;;;;5010726;28;20451;-66
2022/07/10 08:02:39;;;;;;;5.97;1.65;;;18.70;71.80;;;;;;4993676;28;20030;-66
2022/07/10 08:05:06;;;;;;;7.45;1.70;;;18.70;71.90;;;;;;5015562;28;20336;-67
2022/07/10 08:07:36;;;;;;;4.85;2.08;;;18.80;72.00;;;;;;5013261;28;20053;-66
2022/07/10 08:10:03;;;;;;;5.47;1.70;;;18.80;72.10;;;;;;5014758;28;20057;-66
2022/07/10 08:12:29;;;;;;;9.05;2.28;;;18.80;72.10;;;;;;5015997;28;20436;-66
2022/07/10 08:14:54;;;;;;;5.03;1.83;;;18.80;72.20;;;;;;5013363;28;20088;-66
2022/07/10 08:17:21;;;;;;;8.85;2.00;;;18.80;72.30;;;;;;5021249;28;20034;-67
2022/07/10 08:19:47;;;;;;;5.95;2.05;;;18.80;72.50;;;;;;5007507;28;20062;-67
2022/07/10 08:22:13;;;;;;;8.13;2.00;;;18.80;72.60;;;;;;5014163;28;20068;-66
2022/07/10 08:24:38;;;;;;;5.32;1.63;;;18.90;72.60;;;;;;5008510;28;20026;-66
2022/07/10 08:27:06;;;;;;;6.15;1.98;;;18.90;72.60;;;;;;5014924;28;20022;-67
2022/07/10 08:29:32;;;;;;;7.32;2.20;;;19.00;72.40;;;;;;5011924;28;20026;-66
2022/07/10 08:31:57;;;;;;;5.32;1.98;;;19.00;72.20;;;;;;5014165;28;20045;-66
2022/07/10 08:34:23;;;;;;;9.70;2.03;;;19.00;72.10;;;;;;5013363;28;20061;-66
2022/07/10 08:36:48;;;;;;;4.45;2.03;;;19.10;72.20;;;;;;5014028;28;20101;-67
2022/07/10 08:39:16;;;;;;;8.60;2.00;;;19.10;72.10;;;;;;5027638;28;20036;-67
2022/07/10 08:41:42;;;;;;;8.27;1.77;;;19.00;72.20;;;;;;5014266;28;20029;-66
2022/07/10 08:44:08;;;;;;;5.97;1.70;;;19.10;72.20;;;;;;5011900;28;20022;-67
2022/07/10 08:46:35;;;;;;;5.82;1.80;;;19.10;72.10;;;;;;5010753;28;20029;-67
2022/07/10 08:49:05;;;;;;;5.18;1.70;;;19.20;72.00;;;;;;5014683;28;20356;-67
2022/07/10 08:51:37;;;;;;;7.20;2.15;;;19.20;72.00;;;;;;5012843;28;20026;-67
2022/07/10 08:54:06;;;;;;;5.95;1.95;;;19.20;71.90;;;;;;5014166;28;20042;-67
2022/07/10 08:56:33;;;;;;;5.57;1.88;;;19.30;71.80;;;;;;5014814;28;20399;-67
2022/07/10 08:59:00;;;;;;;5.60;1.73;;;19.40;71.60;;;;;;5013849;28;20109;-67
2022/07/10 09:01:25;;;;;;;5.35;1.80;;;19.40;71.40;;;;;;5022255;28;20029;-67
2022/07/10 09:03:52;;;;;;;5.97;2.05;;;19.50;71.30;;;;;;5020390;28;20122;-67
2022/07/10 09:06:18;;;;;;;6.40;1.80;;;19.60;71.90;;;;;;5019108;28;20084;-66
2022/07/10 09:09:08;;;;;;;6.88;1.63;;;19.80;70.80;;;;;;5013084;28;20411;-67
2022/07/10 09:11:34;;;;;;;6.05;1.63;;;20.10;70.20;;;;;;5013749;28;20045;-67
2022/07/10 09:14:03;;;;;;;4.63;1.80;;;20.40;69.50;;;;;;5013030;28;20034;-66
2022/07/10 09:16:32;;;;;;;8.40;1.88;;;20.50;68.70;;;;;;5008570;28;20038;-66
2022/07/10 09:19:25;;;;;;;5.93;1.77;;;20.60;68.40;;;;;;5014514;28;20041;-66
2022/07/10 09:21:59;;;;;;;6.55;2.05;;;20.70;68.10;;;;;;5014605;28;20026;-66
2022/07/10 09:24:25;;;;;;;6.78;1.98;;;20.70;67.80;;;;;;5012784;28;20030;-66
2022/07/10 09:26:58;;;;;;;6.50;1.77;;;20.60;67.80;;;;;;5013502;28;20026;-66
2022/07/10 09:29:24;;;;;;;5.18;2.03;;;20.60;67.70;;;;;;5016099;28;20150;-66
2022/07/10 09:31:56;;;;;;;4.18;1.60;;;20.60;67.50;;;;;;5017259;28;20022;-66
2022/07/10 09:34:41;;;;;;;3.40;1.58;;;20.60;67.10;;;;;;5009101;28;20045;-66
2022/07/10 09:37:29;;;;;;;5.22;1.60;;;20.60;67.00;;;;;;5015843;28;20029;-66
2022/07/10 09:40:06;;;;;;;5.15;1.65;;;20.60;67.00;;;;;;5022596;28;20068;-66
2022/07/10 09:42:33;;;;;;;4.65;1.60;;;20.60;66.70;;;;;;5018097;28;20100;-66
2022/07/10 09:45:16;;;;;;;5.95;1.60;;;20.60;66.50;;;;;;5016966;28;20029;-66
2022/07/10 09:48:03;;;;;;;6.40;2.00;;;20.60;66.10;;;;;;5010492;28;20026;-66
2022/07/10 09:50:29;;;;;;;6.80;1.63;;;20.60;65.90;;;;;;5017726;28;20030;-66
2022/07/10 09:52:57;;;;;;;5.57;1.65;;;20.50;65.70;;;;;;5016695;28;20192;-66
2022/07/10 09:55:26;;;;;;;5.15;1.50;;;20.50;65.50;;;;;;5018038;28;20040;-66
2022/07/10 09:58:03;;;;;;;6.25;1.70;;;20.70;65.30;;;;;;5017954;28;20026;-66
2022/07/10 10:00:33;;;;;;;3.97;1.48;;;20.80;64.80;;;;;;5018351;28;20041;-67
2022/07/10 10:03:04;;;;;;;6.20;1.52;;;20.90;64.60;;;;;;5016943;28;20108;-66
2022/07/10 10:05:54;;;;;;;3.13;1.42;;;21.00;64.30;;;;;;5017209;28;20029;-66
2022/07/10 10:08:43;;;;;;;8.13;1.40;;;21.10;63.90;;;;;;5017637;28;20065;-67
2022/07/10 10:11:15;;;;;;;4.28;1.45;;;20.90;64.60;;;;;;5013757;28;20133;-66
2022/07/10 10:13:42;;;;;;;4.47;1.27;;;20.80;64.20;;;;;;5017707;28;20033;-66
2022/07/10 10:16:09;;;;;;;4.85;1.88;;;20.80;64.30;;;;;;5017483;28;20044;-66
2022/07/10 10:18:36;;;;;;;4.35;1.75;;;20.80;64.00;;;;;;5016851;28;20049;-67
2022/07/10 10:21:06;;;;;;;8.13;1.67;;;21.00;63.40;;;;;;5017153;28;20038;-67
2022/07/10 10:23:34;;;;;;;6.78;2.10;;;21.50;62.30;;;;;;5017374;28;20113;-67
2022/07/10 10:25:59;;;;;;;5.28;2.17;;;21.80;61.50;;;;;;5017569;28;20033;-67
2022/07/10 10:28:26;;;;;;;5.47;1.77;;;22.00;61.30;;;;;;5015576;28;20075;-67
2022/07/10 10:30:59;;;;;;;4.13;1.55;;;22.10;60.80;;;;;;5016162;28;20030;-67
2022/07/10 10:33:35;;;;;;;2.85;1.42;;;22.20;60.30;;;;;;5028187;28;20026;-66
2022/07/10 10:36:05;;;;;;;4.95;1.73;;;22.20;60.00;;;;;;5011525;28;20129;-65
2022/07/10 10:38:58;;;;;;;3.70;1.40;;;22.10;59.80;;;;;;5013933;28;20041;-65
2022/07/10 10:41:45;;;;;;;2.33;1.02;;;21.90;60.00;;;;;;5015272;28;20033;-64
2022/07/10 10:44:15;;;;;;;5.45;1.40;;;21.80;60.10;;;;;;5009406;28;20042;-65
2022/07/10 10:46:50;;;;;;;4.13;1.30;;;21.90;60.00;;;;;;5008988;28;20030;-65
2022/07/10 10:49:17;;;;;;;3.97;1.20;;;22.00;59.80;;;;;;5015377;28;20041;-65
2022/07/10 10:52:03;;;;;;;3.10;1.30;;;22.00;59.70;;;;;;5015144;28;20342;-65
2022/07/10 10:54:57;;;;;;;6.18;1.48;;;21.90;59.70;;;;;;5009385;28;20029;-65
2022/07/10 10:57:43;;;;;;;3.20;1.33;;;21.70;59.80;;;;;;5015209;28;20053;-65
2022/07/10 11:00:12;;;;;;;3.75;1.40;;;21.60;60.10;;;;;;5008895;28;20034;-65
2022/07/10 11:02:41;;;;;;;4.28;1.38;;;21.50;59.90;;;;;;5015292;28;20108;-65
2022/07/10 11:05:20;;;;;;;5.90;1.55;;;21.50;59.90;;;;;;5012494;28;20030;-65
2022/07/10 11:08:02;;;;;;;3.72;1.33;;;21.40;59.90;;;;;;5018913;28;20061;-66
2022/07/10 11:10:29;;;;;;;1.58;1.00;;;21.40;59.90;;;;;;5015924;28;20059;-66
2022/07/10 11:12:59;;;;;;;3.50;1.25;;;21.50;59.70;;;;;;5010507;28;20030;-67
2022/07/10 11:15:25;;;;;;;2.73;1.20;;;21.60;59.50;;;;;;5015569;28;20034;-67
2022/07/10 11:17:52;;;;;;;3.63;1.38;;;21.70;59.50;;;;;;5015936;28;20033;-67
2022/07/10 11:20:18;;;;;;;3.83;1.40;;;21.80;59.30;;;;;;5016292;28;20030;-66
2022/07/10 11:23:00;;;;;;;3.10;1.13;;;21.90;59.10;;;;;;5015159;28;20473;-67
2022/07/10 11:26:07;;;;;;;3.50;1.23;;;22.10;58.80;;;;;;5015384;28;20034;-67
2022/07/10 11:28:41;;;;;;;3.13;1.20;;;22.20;58.30;;;;;;5003916;28;20030;-66
2022/07/10 11:31:07;;;;;;;4.40;1.70;;;22.10;58.30;;;;;;5021206;28;20041;-66
2022/07/10 11:33:42;;;;;;;5.75;1.38;;;22.10;58.40;;;;;;5015241;28;20426;-66
2022/07/10 11:36:13;;;;;;;3.88;1.20;;;22.00;58.50;;;;;;5006210;28;20514;-66
2022/07/10 11:38:41;;;;;;;4.95;1.30;;;21.90;58.60;;;;;;5012541;28;20117;-65
2022/07/10 11:41:17;;;;;;;3.92;1.30;;;21.90;58.80;;;;;;5015112;28;20112;-64
2022/07/10 11:44:03;;;;;;;5.32;1.77;;;21.80;58.90;;;;;;5014105;28;20030;-64
2022/07/10 11:46:33;;;;;;;5.10;1.50;;;22.00;58.70;;;;;;5015882;28;20038;-65
2022/07/10 11:49:04;;;;;;;2.28;1.20;;;22.00;58.60;;;;;;5006524;28;20033;-65
2022/07/10 11:51:32;;;;;;;3.65;1.35;;;21.90;58.70;;;;;;5012757;28;20436;-66
2022/07/10 11:54:08;;;;;;;3.33;1.40;;;21.80;58.90;;;;;;5015594;28;20033;-65
2022/07/10 11:56:36;;;;;;;4.82;1.85;;;21.70;59.40;;;;;;5008823;28;20366;-65
2022/07/10 11:59:02;;;;;;;2.70;1.40;;;21.60;59.40;;;;;;5010621;28;20030;-66
2022/07/10 12:01:31;;;;;;;3.90;1.60;;;21.70;59.50;;;;;;5014801;28;20383;-66
2022/07/10 12:04:08;;;;;;;5.65;1.58;;;21.80;59.30;;;;;;5015534;28;20037;-65
2022/07/10 12:06:42;;;;;;;5.10;1.73;;;21.90;59.00;;;;;;5016351;28;20042;-66
2022/07/10 12:09:13;;;;;;;5.95;2.10;;;22.00;59.00;;;;;;5014937;28;20033;-66
2022/07/10 12:11:41;;;;;;;4.22;1.50;;;22.10;58.80;;;;;;5016259;28;20121;-66
2022/07/10 12:14:18;;;;;;;3.22;1.50;;;22.10;58.80;;;;;;5015954;28;20045;-66
2022/07/10 12:16:46;;;;;;;3.63;1.20;;;22.00;58.80;;;;;;5014544;28;20036;-68
2022/07/10 12:19:14;;;;;;;3.38;1.27;;;22.00;58.90;;;;;;5014724;28;20048;-66
2022/07/10 12:21:42;;;;;;;3.42;1.23;;;21.90;58.70;;;;;;5014448;28;20018;-66
2022/07/10 12:24:09;;;;;;;4.57;1.35;;;21.90;58.70;;;;;;5015655;28;20036;-66
2022/07/10 12:26:36;;;;;;;4.88;1.52;;;21.80;58.70;;;;;;5015101;28;20022;-66
2022/07/10 12:29:04;;;;;;;4.65;1.63;;;21.80;58.90;;;;;;5015370;28;20348;-66
2022/07/10 12:31:33;;;;;;;2.78;1.27;;;21.70;58.90;;;;;;5029287;28;20030;-65
2022/07/10 12:34:04;;;;;;;2.85;1.30;;;21.70;59.00;;;;;;5014697;28;20044;-66
2022/07/10 12:36:49;;;;;;;3.42;1.10;;;21.70;59.00;;;;;;5013251;28;20036;-66
2022/07/10 12:39:17;;;;;;;3.40;1.48;;;21.80;58.90;;;;;;5014748;28;20033;-65
2022/07/10 12:42:03;;;;;;;4.25;1.30;;;21.80;58.50;;;;;;5013403;28;20030;-65
2022/07/10 12:44:40;;;;;;;3.58;1.27;;;21.90;58.70;;;;;;5013500;28;20073;-65
2022/07/10 12:47:08;;;;;;;4.10;1.65;;;22.00;58.60;;;;;;5012953;28;20036;-66
2022/07/10 12:49:54;;;;;;;3.38;1.30;;;22.10;58.40;;;;;;5014603;28;20398;-66
2022/07/10 12:52:24;;;;;;;3.78;1.35;;;22.20;58.20;;;;;;5015149;28;20034;-66
2022/07/10 12:55:13;;;;;;;4.30;1.48;;;22.30;57.90;;;;;;5015100;28;20112;-65
2022/07/10 12:57:54;;;;;;;4.25;1.60;;;22.40;57.80;;;;;;5015143;28;20527;-65
2022/07/10 13:00:30;;;;;;;2.35;1.30;;;22.40;57.50;;;;;;5014346;28;20367;-65
2022/07/10 13:03:08;;;;;;;4.38;1.55;;;22.50;57.50;;;;;;5014817;28;20108;-65
2022/07/10 13:05:38;;;;;;;5.88;1.70;;;22.50;57.30;;;;;;5015014;28;20105;-66